Time;durP1;ratioP1;P1;durP2;ratioP2;P2;SDS_P1;SDS_P2;PMS_P1;PMS_P2;Temp;Humidity;BMP_temperature;BMP_pressure;BME280_temperature;BME280_humidity;BME280_pressure;Samples;Min_cycle;Max_cycle;Signal;HPM_P1;HPM_P2
2021/01/07 00:01:10;;;;;;;191.65;106.93;;;16.70;58.70;;;;;;5114784;28;20028;-61
2021/01/07 00:03:38;;;;;;;183.90;102.15;;;16.70;58.90;;;;;;5114719;28;20080;-61
2021/01/07 00:06:11;;;;;;;183.00;104.47;;;16.70;58.90;;;;;;5114784;28;20024;-61
2021/01/07 00:08:37;;;;;;;185.60;101.50;;;16.70;59.20;;;;;;5115053;28;20101;-61
2021/01/07 00:11:07;;;;;;;184.82;100.68;;;16.60;59.20;;;;;;5114950;28;20469;-61
2021/01/07 00:13:33;;;;;;;179.90;103.03;;;16.70;59.70;;;;;;5114846;28;20031;-61
2021/01/07 00:15:59;;;;;;;185.45;101.22;;;16.70;59.40;;;;;;5114690;28;20034;-61
2021/01/07 00:18:25;;;;;;;179.60;96.70;;;16.70;59.10;;;;;;5114811;28;20020;-61
2021/01/07 00:20:51;;;;;;;174.95;97.57;;;16.80;59.10;;;;;;5114445;28;20530;-61
2021/01/07 00:23:18;;;;;;;166.60;90.28;;;16.80;59.30;;;;;;5114700;28;20024;-61
2021/01/07 00:25:51;;;;;;;162.05;92.30;;;16.80;59.10;;;;;;5114494;28;20023;-62
2021/01/07 00:28:18;;;;;;;177.35;94.63;;;17.00;58.70;;;;;;5114638;28;20042;-61
2021/01/07 00:30:45;;;;;;;164.93;94.03;;;17.10;58.40;;;;;;5114680;28;20114;-62
2021/01/07 00:33:12;;;;;;;165.52;90.43;;;17.20;58.30;;;;;;5114297;28;20028;-61
2021/01/07 00:35:37;;;;;;;163.20;88.15;;;17.30;58.10;;;;;;5113917;28;20457;-61
2021/01/07 00:38:04;;;;;;;161.52;89.38;;;17.30;57.80;;;;;;5114160;28;20024;-61
2021/01/07 00:40:30;;;;;;;157.48;85.63;;;17.40;57.60;;;;;;5114372;28;20027;-61
2021/01/07 00:42:56;;;;;;;152.73;85.47;;;17.50;57.50;;;;;;5114360;28;20081;-61
2021/01/07 00:45:22;;;;;;;149.30;82.93;;;17.50;57.40;;;;;;5114268;28;20464;-61
2021/01/07 00:47:47;;;;;;;152.68;85.68;;;17.50;57.90;;;;;;5113867;28;20019;-62
2021/01/07 00:50:13;;;;;;;147.27;82.80;;;17.60;57.30;;;;;;5113994;28;20381;-61
2021/01/07 00:52:40;;;;;;;146.38;84.30;;;17.60;57.40;;;;;;5114333;28;20032;-62
2021/01/07 00:55:10;;;;;;;148.07;82.25;;;17.60;57.40;;;;;;5114207;28;20030;-62
2021/01/07 00:57:36;;;;;;;140.52;81.57;;;17.50;57.40;;;;;;5113813;28;20024;-62
2021/01/07 01:00:07;;;;;;;140.43;78.93;;;17.50;57.40;;;;;;5113955;28;20469;-62
2021/01/07 01:02:33;;;;;;;134.07;77.10;;;17.50;57.50;;;;;;5114009;28;20546;-61
2021/01/07 01:04:58;;;;;;;143.75;77.35;;;17.50;57.60;;;;;;5114101;28;20032;-61
2021/01/07 01:07:24;;;;;;;129.63;74.07;;;17.50;57.70;;;;;;5114022;28;20024;-61
2021/01/07 01:09:50;;;;;;;130.60;73.63;;;17.40;57.70;;;;;;5113898;28;20138;-61
2021/01/07 01:12:16;;;;;;;130.48;74.25;;;17.40;57.80;;;;;;5114006;28;20377;-61
2021/01/07 01:14:42;;;;;;;130.82;73.80;;;17.40;57.90;;;;;;5113625;28;20035;-61
2021/01/07 01:17:07;;;;;;;128.93;73.25;;;17.40;57.90;;;;;;5113758;28;20414;-61
2021/01/07 01:19:33;;;;;;;123.43;71.20;;;17.40;57.90;;;;;;5113952;28;20106;-61
2021/01/07 01:21:59;;;;;;;123.28;68.38;;;17.40;58.00;;;;;;5113739;28;20049;-61
2021/01/07 01:24:24;;;;;;;118.38;65.90;;;17.60;57.40;;;;;;5113904;28;20077;-61
2021/01/07 01:26:54;;;;;;;114.93;64.30;;;17.70;57.30;;;;;;5113625;28;20039;-61
2021/01/07 01:29:20;;;;;;;112.13;63.00;;;17.60;57.30;;;;;;5113624;28;20038;-61
2021/01/07 01:31:46;;;;;;;114.93;65.70;;;17.60;57.40;;;;;;5114065;28;20040;-60
2021/01/07 01:34:12;;;;;;;113.55;62.33;;;17.60;57.40;;;;;;5113632;28;20034;-60
2021/01/07 01:36:38;;;;;;;113.28;65.88;;;17.60;57.40;;;;;;5113669;28;20050;-61
2021/01/07 01:39:03;;;;;;;109.93;61.40;;;17.50;57.50;;;;;;5113831;28;20023;-61
2021/01/07 01:41:29;;;;;;;113.53;62.70;;;17.50;57.70;;;;;;5113755;28;20031;-61
2021/01/07 01:43:55;;;;;;;115.20;59.95;;;17.40;57.80;;;;;;5113695;28;20020;-61
2021/01/07 01:46:20;;;;;;;106.15;60.85;;;17.30;57.80;;;;;;5113758;28;20032;-61
2021/01/07 01:48:46;;;;;;;108.70;61.53;;;17.30;57.90;;;;;;5113635;28;20028;-61
2021/01/07 01:51:12;;;;;;;111.57;62.05;;;17.30;58.00;;;;;;5113822;28;20032;-61
2021/01/07 01:53:38;;;;;;;106.80;60.05;;;17.30;58.60;;;;;;5113635;28;20031;-61
2021/01/07 01:56:06;;;;;;;97.65;55.15;;;17.30;58.00;;;;;;5113636;28;20059;-61
2021/01/07 01:58:35;;;;;;;104.13;58.92;;;17.30;58.00;;;;;;5113482;28;20031;-62
2021/01/07 02:01:01;;;;;;;100.03;55.75;;;17.20;58.10;;;;;;5113889;28;20035;-61
2021/01/07 02:03:26;;;;;;;99.13;57.95;;;17.20;58.10;;;;;;5114042;28;20024;-61
2021/01/07 02:05:54;;;;;;;99.47;55.80;;;17.20;58.20;;;;;;5113532;28;20028;-61
2021/01/07 02:08:20;;;;;;;90.95;52.55;;;17.20;58.20;;;;;;5114107;28;20023;-61
2021/01/07 02:10:47;;;;;;;99.45;56.80;;;17.20;58.30;;;;;;5116880;28;20088;-61
2021/01/07 02:13:12;;;;;;;90.38;52.13;;;17.10;58.30;;;;;;5116895;28;20115;-61
2021/01/07 02:15:40;;;;;;;96.10;54.38;;;17.10;58.40;;;;;;5117260;28;20107;-61
2021/01/07 02:18:06;;;;;;;92.07;51.28;;;17.10;58.40;;;;;;5117035;28;20066;-61
2021/01/07 02:20:33;;;;;;;87.75;49.38;;;17.10;58.50;;;;;;5116852;28;20024;-61
2021/01/07 02:22:58;;;;;;;85.93;49.63;;;17.00;58.50;;;;;;5116959;28;20034;-61
2021/01/07 02:25:24;;;;;;;82.18;47.47;;;17.00;58.60;;;;;;5116649;28;20023;-61
2021/01/07 02:27:50;;;;;;;81.90;48.17;;;17.00;58.60;;;;;;5116667;28;20022;-61
2021/01/07 02:30:16;;;;;;;86.15;46.15;;;17.00;58.40;;;;;;5116938;28;20111;-61
2021/01/07 02:32:42;;;;;;;87.78;48.60;;;17.00;58.70;;;;;;5116590;27;20533;-60
2021/01/07 02:35:09;;;;;;;83.13;45.05;;;16.90;58.80;;;;;;5116688;28;20098;-61
2021/01/07 02:37:36;;;;;;;74.82;44.20;;;16.90;58.80;;;;;;5116444;28;20034;-61
2021/01/07 02:40:04;;;;;;;77.28;43.42;;;16.90;59.00;;;;;;5116586;28;20031;-61
2021/01/07 02:42:30;;;;;;;79.35;44.38;;;16.90;58.80;;;;;;5116530;28;20107;-61
2021/01/07 02:44:55;;;;;;;73.18;43.13;;;16.90;58.90;;;;;;5116502;28;20493;-61
2021/01/07 02:47:21;;;;;;;74.38;42.40;;;16.90;58.70;;;;;;5116651;28;20127;-61
2021/01/07 02:49:46;;;;;;;71.15;41.20;;;16.90;58.70;;;;;;5116180;28;20058;-61
2021/01/07 02:52:12;;;;;;;75.88;42.65;;;16.90;59.30;;;;;;5116320;28;20031;-61
2021/01/07 02:54:38;;;;;;;76.13;42.70;;;16.90;58.70;;;;;;5116279;28;20027;-61
2021/01/07 02:57:03;;;;;;;70.78;39.28;;;16.90;58.70;;;;;;5116286;28;20380;-61
2021/01/07 02:59:29;;;;;;;69.35;40.25;;;17.60;58.00;;;;;;5116251;28;20031;-61
2021/01/07 03:01:55;;;;;;;74.40;41.20;;;17.10;58.30;;;;;;5115975;28;20028;-61
2021/01/07 03:04:20;;;;;;;67.50;38.50;;;17.20;58.10;;;;;;5116292;28;20453;-61
2021/01/07 03:06:46;;;;;;;65.97;36.38;;;17.30;58.50;;;;;;5115928;28;20019;-60
2021/01/07 03:09:13;;;;;;;60.25;36.10;;;17.40;57.60;;;;;;5115779;28;20070;-61
2021/01/07 03:11:39;;;;;;;65.22;37.00;;;17.50;57.40;;;;;;5115830;28;20052;-60
2021/01/07 03:14:05;;;;;;;67.45;36.67;;;17.60;57.20;;;;;;5115897;28;20088;-61
2021/01/07 03:16:31;;;;;;;64.25;36.67;;;17.70;57.00;;;;;;5116202;28;20024;-61
2021/01/07 03:18:57;;;;;;;61.42;35.97;;;17.70;56.90;;;;;;5115834;28;20527;-61
2021/01/07 03:21:23;;;;;;;59.45;34.58;;;17.70;56.80;;;;;;5115546;28;20059;-61
2021/01/07 03:23:49;;;;;;;60.85;34.80;;;17.70;56.90;;;;;;5115425;28;20415;-61
2021/01/07 03:26:15;;;;;;;58.83;34.30;;;17.70;56.90;;;;;;5115546;28;20020;-61
2021/01/07 03:28:41;;;;;;;57.28;32.75;;;17.80;57.00;;;;;;5115547;28;20036;-61
2021/01/07 03:31:07;;;;;;;55.53;33.85;;;17.70;57.00;;;;;;5115279;28;20477;-61
2021/01/07 03:33:33;;;;;;;58.80;32.45;;;17.70;57.00;;;;;;5115676;28;20422;-61
2021/01/07 03:36:00;;;;;;;55.38;30.88;;;17.70;57.00;;;;;;5115292;28;20153;-61
2021/01/07 03:38:26;;;;;;;48.53;29.30;;;17.70;57.10;;;;;;5115127;28;20075;-61
2021/01/07 03:40:51;;;;;;;51.25;30.67;;;17.70;57.10;;;;;;5115615;28;20076;-61
2021/01/07 03:43:17;;;;;;;53.90;29.08;;;18.00;56.50;;;;;;5115236;28;20024;-61
2021/01/07 03:45:43;;;;;;;52.45;29.52;;;18.10;56.20;;;;;;5115520;28;20031;-60
2021/01/07 03:48:09;;;;;;;50.22;28.95;;;18.00;56.00;;;;;;5113714;28;20024;-60
2021/01/07 03:50:35;;;;;;;48.03;27.73;;;18.10;56.00;;;;;;5114823;28;20019;-60
2021/01/07 03:53:01;;;;;;;50.65;28.65;;;18.00;56.20;;;;;;5114951;28;20029;-61
2021/01/07 03:55:26;;;;;;;47.05;26.73;;;17.90;56.30;;;;;;5115079;28;20028;-61
2021/01/07 03:57:52;;;;;;;49.85;26.67;;;17.80;56.60;;;;;;5114957;28;20019;-61
2021/01/07 04:00:18;;;;;;;50.25;28.38;;;17.70;56.90;;;;;;5114805;28;20024;-61
2021/01/07 04:02:43;;;;;;;48.08;28.00;;;17.60;57.00;;;;;;5114769;28;20028;-61
2021/01/07 04:05:09;;;;;;;47.97;25.60;;;17.60;57.20;;;;;;5114912;28;20056;-61
2021/01/07 04:07:37;;;;;;;45.78;25.15;;;17.50;57.20;;;;;;5114626;28;20102;-61
2021/01/07 04:10:07;;;;;;;46.38;26.25;;;17.50;57.20;;;;;;5114701;28;20087;-61
2021/01/07 04:12:34;;;;;;;;;;;17.50;57.30;;;;;;5114902;28;20036;-63
2021/01/07 04:15:00;;;;;;;45.63;23.63;;;17.40;57.30;;;;;;5114525;28;19951;-61
2021/01/07 04:17:26;;;;;;;48.83;25.52;;;17.40;57.30;;;;;;5114583;28;20031;-61
2021/01/07 04:19:51;;;;;;;42.28;24.67;;;17.40;57.30;;;;;;5114609;28;20036;-61
2021/01/07 04:22:17;;;;;;;39.75;22.38;;;17.40;57.30;;;;;;5114423;28;20028;-61
2021/01/07 04:24:42;;;;;;;41.33;23.60;;;17.30;57.40;;;;;;5114265;28;20388;-62
2021/01/07 04:27:08;;;;;;;43.72;24.35;;;17.30;57.40;;;;;;5114572;28;20080;-61
2021/01/07 04:29:33;;;;;;;44.70;24.17;;;17.30;57.40;;;;;;5114634;28;20369;-62
2021/01/07 04:31:59;;;;;;;41.50;23.83;;;17.30;57.40;;;;;;5113880;28;20027;-61
2021/01/07 04:34:25;;;;;;;39.05;21.00;;;17.30;57.40;;;;;;5114216;28;20508;-61
2021/01/07 04:36:50;;;;;;;42.08;23.23;;;17.30;57.50;;;;;;5114363;28;20080;-61
2021/01/07 04:39:16;;;;;;;42.65;22.27;;;17.30;57.50;;;;;;5114434;28;20059;-61
2021/01/07 04:41:42;;;;;;;38.75;22.05;;;17.30;57.60;;;;;;5114298;28;20028;-61
2021/01/07 04:44:08;;;;;;;37.63;20.95;;;17.20;57.70;;;;;;5114269;28;20376;-61
2021/01/07 04:46:34;;;;;;;35.33;19.98;;;17.20;57.70;;;;;;5112828;28;20042;-62
2021/01/07 04:49:00;;;;;;;38.95;21.52;;;17.20;57.80;;;;;;5113959;28;20063;-61
2021/01/07 04:51:26;;;;;;;36.75;20.83;;;17.20;58.30;;;;;;5114318;28;20084;-61
2021/01/07 04:53:51;;;;;;;36.50;19.90;;;17.20;57.90;;;;;;5114259;28;20385;-62
2021/01/07 04:56:17;;;;;;;36.42;20.23;;;17.20;57.90;;;;;;5114052;28;20019;-60
2021/01/07 04:58:42;;;;;;;33.67;18.58;;;17.20;57.90;;;;;;5113934;28;20071;-61
2021/01/07 05:01:09;;;;;;;32.22;19.95;;;17.20;58.00;;;;;;5113740;28;20465;-61
2021/01/07 05:03:35;;;;;;;31.02;17.75;;;17.20;58.20;;;;;;5113863;28;20028;-61
2021/01/07 05:06:01;;;;;;;33.28;18.40;;;17.10;58.40;;;;;;5114033;28;20514;-61
2021/01/07 05:08:27;;;;;;;29.98;17.88;;;17.10;57.90;;;;;;5113851;28;20425;-61
2021/01/07 05:10:54;;;;;;;33.33;17.48;;;17.20;57.80;;;;;;5113870;28;20047;-61
2021/01/07 05:13:21;;;;;;;33.17;18.50;;;17.20;57.70;;;;;;5113850;28;20111;-61
2021/01/07 05:15:46;;;;;;;31.27;17.70;;;17.30;57.50;;;;;;5113998;28;20465;-61
2021/01/07 05:18:12;;;;;;;28.88;16.15;;;17.30;57.30;;;;;;5113943;28;20104;-61
2021/01/07 05:20:38;;;;;;;30.08;17.20;;;17.50;57.00;;;;;;5113558;28;20028;-61
2021/01/07 05:23:04;;;;;;;31.85;16.92;;;17.60;56.90;;;;;;5113748;28;20107;-61
2021/01/07 05:25:30;;;;;;;30.65;16.58;;;17.60;56.70;;;;;;5113463;28;20027;-61
2021/01/07 05:28:05;;;;;;;25.13;15.35;;;17.70;56.50;;;;;;5112383;28;20051;-61
2021/01/07 05:30:33;;;;;;;26.80;16.02;;;17.80;56.30;;;;;;5113541;28;20034;-61
2021/01/07 05:33:09;;;;;;;28.30;16.67;;;17.90;56.10;;;;;;5113849;28;20377;-61
2021/01/07 05:35:36;;;;;;;25.17;14.68;;;18.00;55.90;;;;;;5114016;28;20028;-61
2021/01/07 05:38:05;;;;;;;27.50;15.23;;;18.10;55.80;;;;;;5113646;28;20119;-61
2021/01/07 05:40:31;;;;;;;27.52;16.20;;;18.20;55.60;;;;;;5113752;28;20404;-61
2021/01/07 05:43:01;;;;;;;26.30;15.32;;;18.20;55.40;;;;;;5113908;28;20522;-60
2021/01/07 05:45:37;;;;;;;25.00;14.57;;;18.30;55.30;;;;;;5117459;28;20028;-61
2021/01/07 05:48:04;;;;;;;24.95;14.68;;;18.40;55.00;;;;;;5117617;28;20020;-61
2021/01/07 05:50:35;;;;;;;26.08;14.63;;;18.50;54.90;;;;;;5117581;28;20024;-61
2021/01/07 05:53:01;;;;;;;26.15;14.35;;;18.50;54.70;;;;;;5117730;28;20458;-61
2021/01/07 05:55:27;;;;;;;23.90;14.57;;;18.60;54.60;;;;;;5117483;28;20064;-61
2021/01/07 05:57:58;;;;;;;25.80;14.65;;;18.70;54.80;;;;;;5117538;28;20489;-61
2021/01/07 06:00:24;;;;;;;24.55;13.35;;;18.70;54.60;;;;;;5117538;28;20031;-61
2021/01/07 06:02:54;;;;;;;22.42;13.50;;;18.80;54.60;;;;;;5117212;28;20376;-62
2021/01/07 06:05:21;;;;;;;21.48;13.10;;;18.90;54.40;;;;;;5117262;28;20089;-61
2021/01/07 06:07:48;;;;;;;25.17;12.95;;;19.00;54.30;;;;;;5116999;28;20035;-60
2021/01/07 06:10:16;;;;;;;25.90;13.88;;;19.00;54.00;;;;;;5116777;28;20059;-61
2021/01/07 06:12:42;;;;;;;22.27;12.40;;;19.10;53.70;;;;;;5116873;28;20534;-61
2021/01/07 06:15:10;;;;;;;24.40;12.93;;;19.20;53.50;;;;;;5117191;28;20059;-61
2021/01/07 06:17:37;;;;;;;21.77;12.50;;;19.20;53.50;;;;;;5117151;28;20481;-61
2021/01/07 06:20:14;;;;;;;19.92;11.63;;;19.20;54.20;;;;;;5116881;28;20031;-61
2021/01/07 06:22:43;;;;;;;19.17;11.98;;;19.10;53.60;;;;;;5117009;28;20473;-61
2021/01/07 06:25:13;;;;;;;19.83;11.30;;;19.10;53.70;;;;;;5116921;28;20028;-61
2021/01/07 06:27:44;;;;;;;19.30;11.07;;;19.00;53.80;;;;;;5116865;28;20102;-61
2021/01/07 06:30:09;;;;;;;19.30;10.98;;;19.00;53.90;;;;;;5116631;28;20040;-61
2021/01/07 06:32:35;;;;;;;19.13;11.48;;;19.00;54.00;;;;;;5116602;28;20381;-61
2021/01/07 06:35:01;;;;;;;17.92;10.88;;;18.90;54.00;;;;;;5116706;28;20473;-62
2021/01/07 06:37:34;;;;;;;18.48;11.13;;;18.90;54.10;;;;;;5117108;28;20457;-61
2021/01/07 06:40:06;;;;;;;20.08;11.32;;;18.70;53.50;;;;;;5117173;28;20031;-61
2021/01/07 06:42:41;;;;;;;17.52;10.05;;;18.80;54.20;;;;;;5116558;28;20035;-61
2021/01/07 06:45:09;;;;;;;19.58;9.80;;;18.70;54.40;;;;;;5116868;28;20035;-61
2021/01/07 06:47:36;;;;;;;18.48;10.07;;;18.70;54.40;;;;;;5116389;28;20023;-61
2021/01/07 06:50:04;;;;;;;16.23;10.13;;;18.60;54.60;;;;;;5116148;28;20059;-61
2021/01/07 06:52:43;;;;;;;17.30;10.55;;;18.60;54.70;;;;;;5116606;28;20035;-61
2021/01/07 06:55:12;;;;;;;18.35;9.75;;;18.50;54.90;;;;;;5116125;28;20031;-61
2021/01/07 06:57:50;;;;;;;20.30;10.80;;;18.50;55.10;;;;;;5116105;28;20016;-61
2021/01/07 07:00:20;;;;;;;15.50;9.15;;;18.40;55.10;;;;;;5116497;28;20435;-61
2021/01/07 07:03:09;;;;;;;16.80;10.02;;;18.30;55.30;;;;;;5116219;28;20019;-61
2021/01/07 07:05:37;;;;;;;15.70;9.70;;;18.40;55.40;;;;;;5116343;28;20028;-61
2021/01/07 07:08:06;;;;;;;16.05;9.02;;;18.50;54.90;;;;;;5115858;28;20062;-60
2021/01/07 07:10:34;;;;;;;14.68;8.98;;;18.60;54.60;;;;;;5114367;28;20048;-61
2021/01/07 07:13:13;;;;;;;15.55;9.07;;;18.70;54.40;;;;;;5115719;28;20373;-61
2021/01/07 07:15:40;;;;;;;14.70;8.30;;;18.70;54.60;;;;;;5116203;28;20020;-61
2021/01/07 07:18:05;;;;;;;13.88;8.05;;;18.50;54.90;;;;;;5116021;28;20050;-60
2021/01/07 07:20:44;;;;;;;15.93;8.73;;;18.40;55.00;;;;;;5115861;28;20466;-61
2021/01/07 07:23:19;;;;;;;15.35;8.25;;;18.30;55.00;;;;;;5116082;28;20092;-61
2021/01/07 07:25:55;;;;;;;13.25;7.95;;;18.20;55.20;;;;;;5116088;28;20027;-60
2021/01/07 07:28:26;;;;;;;15.20;8.02;;;18.20;55.40;;;;;;5115524;28;20384;-61
2021/01/07 07:30:52;;;;;;;15.52;8.68;;;18.20;55.60;;;;;;5115756;28;20378;-60
2021/01/07 07:33:34;;;;;;;16.20;8.43;;;18.10;55.60;;;;;;5115287;28;20020;-61
2021/01/07 07:36:00;;;;;;;13.40;7.10;;;18.30;55.40;;;;;;5115447;28;20063;-61
2021/01/07 07:38:31;;;;;;;13.82;8.38;;;18.30;55.40;;;;;;5115495;28;20545;-61
2021/01/07 07:41:01;;;;;;;16.05;9.32;;;18.40;55.20;;;;;;5115388;28;20488;-61
2021/01/07 07:43:29;;;;;;;13.30;7.07;;;18.40;55.10;;;;;;5115485;28;20362;-60
2021/01/07 07:45:55;;;;;;;15.27;7.85;;;18.40;55.00;;;;;;5115011;28;20036;-61
2021/01/07 07:48:28;;;;;;;14.70;7.55;;;18.50;54.90;;;;;;5115018;28;20366;-61
2021/01/07 07:51:11;;;;;;;11.50;7.70;;;18.60;54.70;;;;;;5115192;28;20457;-61
2021/01/07 07:53:37;;;;;;;12.70;7.57;;;18.70;54.50;;;;;;5115259;28;20027;-61
2021/01/07 07:56:24;;;;;;;14.07;7.72;;;18.70;54.40;;;;;;5115128;28;20027;-61
2021/01/07 07:59:04;;;;;;;12.60;6.43;;;18.80;54.30;;;;;;5114403;28;20051;-61
2021/01/07 08:01:41;;;;;;;12.50;6.78;;;18.80;54.00;;;;;;5114873;27;20052;-61
2021/01/07 08:04:15;;;;;;;15.10;7.68;;;18.90;54.00;;;;;;5114762;28;20027;-61
2021/01/07 08:06:41;;;;;;;11.32;6.60;;;18.80;54.70;;;;;;5114070;28;20459;-61
2021/01/07 08:09:09;;;;;;;13.50;6.68;;;18.80;54.30;;;;;;5114428;28;20066;-61
2021/01/07 08:12:01;;;;;;;10.40;5.53;;;18.80;54.50;;;;;;5114941;28;20437;-61
2021/01/07 08:14:30;;;;;;;9.88;5.85;;;18.80;54.60;;;;;;5111808;28;20473;-61
2021/01/07 08:16:57;;;;;;;10.35;6.00;;;18.80;54.60;;;;;;5114631;28;20027;-61
2021/01/07 08:19:31;;;;;;;10.90;5.85;;;18.90;54.50;;;;;;5114614;28;20034;-61
2021/01/07 08:21:56;;;;;;;11.13;6.55;;;18.80;54.50;;;;;;5115210;28;20072;-61
2021/01/07 08:24:24;;;;;;;11.60;7.00;;;18.80;54.30;;;;;;5114350;28;20418;-58
2021/01/07 08:27:16;;;;;;;12.77;6.35;;;18.70;54.40;;;;;;5114383;28;20073;-62
2021/01/07 08:29:52;;;;;;;14.52;6.13;;;18.70;55.00;;;;;;5094576;28;20044;-61
2021/01/07 08:32:20;;;;;;;11.23;6.28;;;18.70;55.10;;;;;;5093945;28;20529;-61
2021/01/07 08:34:47;;;;;;;10.63;5.88;;;18.60;55.90;;;;;;5093905;28;20427;-63
2021/01/07 08:37:17;;;;;;;14.10;7.82;;;18.60;56.40;;;;;;5094069;28;20031;-62
2021/01/07 08:39:43;;;;;;;;;;;18.60;55.70;;;;;;5094499;28;20110;-61
2021/01/07 08:42:10;;;;;;;12.18;7.85;;;18.70;55.10;;;;;;5094013;28;19946;-61
2021/01/07 08:44:36;;;;;;;13.70;7.50;;;18.60;55.00;;;;;;5094030;28;20023;-61
2021/01/07 08:47:03;;;;;;;12.65;7.18;;;18.60;55.20;;;;;;5093934;28;20425;-62
2021/01/07 08:49:29;;;;;;;13.10;6.53;;;18.50;55.40;;;;;;5093515;28;20024;-61
2021/01/07 08:51:58;;;;;;;13.30;7.38;;;18.40;55.60;;;;;;5093951;28;20073;-65
2021/01/07 08:54:25;;;;;;;14.15;6.88;;;18.30;55.70;;;;;;5093465;28;20020;-63
2021/01/07 08:56:54;;;;;;;12.13;6.63;;;18.20;55.90;;;;;;5093497;28;20032;-61
2021/01/07 08:59:31;;;;;;;11.55;6.50;;;18.20;56.00;;;;;;5093749;28;20060;-61
2021/01/07 09:01:57;;;;;;;17.42;6.15;;;18.20;55.40;;;;;;5093774;28;20020;-58
2021/01/07 09:04:32;;;;;;;14.95;6.60;;;18.20;54.40;;;;;;5093794;28;20065;-59
2021/01/07 09:07:03;;;;;;;11.70;6.38;;;18.20;54.20;;;;;;5095619;28;20066;-59
2021/01/07 09:09:42;;;;;;;27.77;16.75;;;18.20;53.80;;;;;;5113192;28;20546;-59
2021/01/07 09:12:29;;;;;;;37.67;25.23;;;18.10;51.50;;;;;;5112837;28;20024;-60
2021/01/07 09:15:05;;;;;;;36.08;20.00;;;18.10;50.20;;;;;;5113190;28;20020;-64
2021/01/07 09:17:48;;;;;;;83.43;48.88;;;18.20;49.90;;;;;;5112923;28;20019;-62
2021/01/07 09:20:18;;;;;;;129.27;70.75;;;18.30;47.40;;;;;;5116640;28;20477;-61
2021/01/07 09:22:45;;;;;;;105.25;59.00;;;18.30;46.60;;;;;;5115279;28;20024;-61
2021/01/07 09:25:19;;;;;;;104.50;61.55;;;18.20;45.30;;;;;;5116571;27;20546;-60
2021/01/07 09:27:51;;;;;;;96.03;56.20;;;18.10;44.10;;;;;;5117638;28;20124;-60
2021/01/07 09:30:17;;;;;;;70.95;43.50;;;18.00;43.80;;;;;;5117665;28;20089;-59
2021/01/07 09:32:44;;;;;;;48.28;28.10;;;17.80;43.60;;;;;;5118019;28;20489;-59
2021/01/07 09:35:12;;;;;;;40.58;23.77;;;17.60;42.50;;;;;;5118004;28;20128;-59
2021/01/07 09:37:37;;;;;;;38.17;24.65;;;17.60;42.80;;;;;;5117808;27;20028;-62
2021/01/07 09:40:05;;;;;;;41.35;21.20;;;17.70;43.30;;;;;;5117858;28;20102;-60
2021/01/07 09:42:32;;;;;;;40.78;20.77;;;17.70;43.70;;;;;;5117560;28;20474;-59
2021/01/07 09:44:58;;;;;;;37.70;20.88;;;17.80;44.40;;;;;;5117728;28;20039;-59
2021/01/07 09:47:24;;;;;;;34.58;19.75;;;17.80;45.90;;;;;;5117847;28;20032;-58
2021/01/07 09:49:50;;;;;;;40.63;19.33;;;17.70;47.50;;;;;;5117642;28;20053;-56
2021/01/07 09:52:35;;;;;;;34.58;19.63;;;17.60;48.20;;;;;;5117604;28;20084;-55
2021/01/07 09:55:01;;;;;;;33.63;18.58;;;17.60;49.20;;;;;;5117184;28;20081;-57
2021/01/07 09:57:26;;;;;;;30.17;17.40;;;17.70;50.00;;;;;;5115022;28;20038;-57
2021/01/07 09:59:52;;;;;;;41.25;17.80;;;17.80;50.60;;;;;;5115178;28;20401;-59
2021/01/07 10:02:18;;;;;;;34.58;18.45;;;17.80;51.00;;;;;;5115045;28;20111;-57
2021/01/07 10:04:44;;;;;;;28.13;17.38;;;17.90;51.40;;;;;;5115229;28;20029;-57
2021/01/07 10:07:10;;;;;;;33.47;16.67;;;17.90;51.80;;;;;;5116347;28;20028;-56
2021/01/07 10:09:36;;;;;;;34.90;16.52;;;18.00;52.20;;;;;;5115957;28;20489;-55
2021/01/07 10:12:03;;;;;;;31.00;15.75;;;18.00;52.40;;;;;;5117024;28;20047;-56
2021/01/07 10:14:30;;;;;;;29.67;16.63;;;18.20;52.80;;;;;;5117178;28;20116;-55
2021/01/07 10:16:57;;;;;;;30.05;15.82;;;18.20;53.10;;;;;;5117814;28;20050;-56
2021/01/07 10:19:26;;;;;;;28.23;15.90;;;18.20;53.20;;;;;;5117044;28;20023;-56
2021/01/07 10:22:02;;;;;;;25.10;14.85;;;18.40;53.50;;;;;;5117086;28;20103;-56
2021/01/07 10:24:28;;;;;;;24.63;14.85;;;18.60;53.60;;;;;;5116749;28;20032;-55
2021/01/07 10:27:03;;;;;;;29.30;15.25;;;18.70;53.40;;;;;;5116932;28;20023;-55
2021/01/07 10:29:31;;;;;;;32.60;14.00;;;18.90;54.00;;;;;;5116084;28;20024;-55
2021/01/07 10:32:18;;;;;;;25.80;14.90;;;18.90;53.50;;;;;;5116674;28;20036;-56
2021/01/07 10:34:46;;;;;;;22.88;13.90;;;18.90;54.10;;;;;;5117293;28;20077;-57
2021/01/07 10:37:13;;;;;;;26.58;14.88;;;18.90;54.40;;;;;;5116659;28;20036;-57
2021/01/07 10:39:42;;;;;;;22.60;13.30;;;18.80;54.80;;;;;;5116621;28;20057;-56
2021/01/07 10:42:12;;;;;;;23.60;13.18;;;18.80;55.00;;;;;;5116674;28;20062;-57
2021/01/07 10:44:39;;;;;;;;;;;18.70;55.20;;;;;;5116988;28;20028;-57
2021/01/07 10:47:06;;;;;;;20.02;12.55;;;18.70;55.40;;;;;;5116695;28;19910;-57
2021/01/07 10:49:36;;;;;;;26.42;14.48;;;18.70;55.70;;;;;;5116396;28;20122;-55
2021/01/07 10:52:07;;;;;;;23.52;12.88;;;18.70;55.90;;;;;;5116301;27;20027;-57
2021/01/07 10:55:26;;;;;;;25.63;13.93;;;18.60;56.10;;;;;;5116405;28;20024;-57
2021/01/07 10:58:03;;;;;;;20.08;11.93;;;18.60;56.30;;;;;;5116764;28;20027;-54
2021/01/07 11:01:01;;;;;;;26.02;12.73;;;18.60;56.50;;;;;;5116694;28;20065;-55
2021/01/07 11:03:46;;;;;;;24.13;11.73;;;18.50;57.40;;;;;;5114978;28;20024;-56
2021/01/07 11:06:17;;;;;;;19.73;11.60;;;18.50;58.10;;;;;;5116042;28;20377;-57
2021/01/07 11:08:47;;;;;;;20.90;12.02;;;18.40;57.50;;;;;;5115997;28;20034;-58
2021/01/07 11:11:23;;;;;;;;;;;18.40;57.60;;;;;;5116060;28;20143;-56
2021/01/07 11:13:56;;;;;;;17.83;10.70;;;18.40;57.90;;;;;;5115633;28;19904;-58
2021/01/07 11:16:41;;;;;;;22.23;10.82;;;18.30;58.00;;;;;;5114809;28;20038;-59
2021/01/07 11:19:08;;;;;;;22.85;12.68;;;18.20;58.10;;;;;;5115925;28;20068;-57
2021/01/07 11:21:37;;;;;;;21.27;11.38;;;18.20;58.00;;;;;;5115551;28;20418;-57
2021/01/07 11:24:03;;;;;;;22.70;10.25;;;18.30;58.10;;;;;;5114678;28;20165;-57
2021/01/07 11:26:29;;;;;;;20.80;10.60;;;18.50;57.70;;;;;;5116315;28;20086;-58
2021/01/07 11:28:55;;;;;;;24.92;10.38;;;18.60;57.20;;;;;;5115421;28;20420;-58
2021/01/07 11:31:21;;;;;;;21.38;10.63;;;18.60;57.10;;;;;;5115701;28;20030;-57
2021/01/07 11:33:50;;;;;;;22.08;11.10;;;18.60;57.10;;;;;;5115712;28;20023;-57
2021/01/07 11:36:21;;;;;;;15.68;9.48;;;18.60;57.20;;;;;;5115652;28;20483;-58
2021/01/07 11:39:00;;;;;;;17.98;9.63;;;18.50;57.40;;;;;;5115224;28;20039;-58
2021/01/07 11:41:41;;;;;;;15.90;9.73;;;18.30;57.60;;;;;;5114382;28;20028;-56
2021/01/07 11:44:49;;;;;;;30.67;10.75;;;18.20;57.90;;;;;;5113987;28;20028;-59
2021/01/07 11:47:18;;;;;;;64.85;33.08;;;18.20;58.30;;;;;;5109460;28;20039;-58
2021/01/07 11:49:48;;;;;;;106.75;55.00;;;18.40;59.20;;;;;;5115265;28;20027;-55
2021/01/07 11:52:14;;;;;;;184.18;95.50;;;18.50;59.60;;;;;;5114809;28;20506;-57
2021/01/07 11:54:40;;;;;;;129.15;71.05;;;18.60;59.50;;;;;;5113744;28;20032;-57
2021/01/07 11:57:08;;;;;;;179.45;96.57;;;18.80;58.90;;;;;;5114492;28;20415;-58
2021/01/07 11:59:38;;;;;;;134.07;67.45;;;18.80;58.10;;;;;;5114011;28;20032;-57
2021/01/07 12:02:10;;;;;;;110.40;59.45;;;18.90;57.90;;;;;;5114469;28;20030;-57
2021/01/07 12:04:37;;;;;;;156.98;88.57;;;19.10;57.50;;;;;;5112802;28;20494;-58
2021/01/07 12:07:23;;;;;;;142.95;77.65;;;19.10;57.50;;;;;;5114731;28;20028;-59
2021/01/07 12:09:48;;;;;;;123.32;67.40;;;19.10;58.10;;;;;;5083273;28;20044;-58
2021/01/07 12:12:15;;;;;;;130.23;62.85;;;19.10;58.00;;;;;;5114954;28;20053;-59
2021/01/07 12:14:52;;;;;;;102.90;58.55;;;19.20;57.70;;;;;;5114836;28;20019;-59
2021/01/07 12:17:18;;;;;;;104.82;57.97;;;19.10;57.40;;;;;;5115001;28;20081;-59
2021/01/07 12:19:44;;;;;;;104.85;55.97;;;19.00;58.10;;;;;;5114598;28;20032;-59
2021/01/07 12:22:15;;;;;;;78.47;43.10;;;18.90;58.70;;;;;;5114643;28;20027;-59
2021/01/07 12:24:43;;;;;;;76.60;44.97;;;18.90;58.10;;;;;;5113819;28;20024;-62
2021/01/07 12:27:09;;;;;;;186.73;95.15;;;18.90;57.90;;;;;;5114363;28;20067;-59
2021/01/07 12:29:40;;;;;;;286.73;150.80;;;19.00;58.00;;;;;;5114869;28;20023;-59
2021/01/07 12:32:20;;;;;;;399.33;224.73;;;19.00;58.40;;;;;;5114604;28;20495;-59
2021/01/07 12:35:07;;;;;;;479.75;281.88;;;18.90;58.50;;;;;;5113918;28;20028;-60
2021/01/07 12:38:10;;;;;;;515.30;315.33;;;18.80;58.50;;;;;;5113299;28;20023;-59